createdAt,value
2023-03-14T00:00:52.057Z,40.14
2023-03-14T00:01:52.098Z,40.12
2023-03-14T00:02:52.222Z,40.14
2023-03-14T00:03:51.194Z,40.15
2023-03-14T00:04:52.248Z,40.15
2023-03-14T00:05:51.313Z,40.15
2023-03-14T00:06:52.377Z,40.15
2023-03-14T00:07:51.493Z,40.15
2023-03-14T00:08:51.481Z,40.14
2023-03-14T00:09:52.550Z,40.14
2023-03-14T00:10:52.609Z,40.10
2023-03-14T00:11:52.667Z,40.14
2023-03-14T00:12:52.707Z,40.14
2023-03-14T00:13:52.784Z,40.11
2023-03-14T00:14:52.822Z,40.13
2023-03-14T00:15:52.891Z,40.15
2023-03-14T00:16:52.940Z,40.13
2023-03-14T00:17:53.025Z,40.12
2023-03-14T00:18:53.061Z,40.12
2023-03-14T00:19:52.102Z,40.16
2023-03-14T00:20:53.161Z,40.16
2023-03-14T00:21:53.212Z,40.11
2023-03-14T00:22:53.278Z,40.10
2023-03-14T00:23:53.333Z,40.09
2023-03-14T00:24:53.396Z,40.09
2023-03-14T00:25:53.438Z,40.12
2023-03-14T00:26:53.505Z,40.11
2023-03-14T00:27:53.578Z,40.08
2023-03-14T00:28:52.604Z,40.12
2023-03-14T00:29:53.669Z,40.09
2023-03-14T00:30:53.788Z,40.12
2023-03-14T00:31:52.819Z,40.08
2023-03-14T00:32:52.930Z,40.08
2023-03-14T00:33:53.955Z,40.12
2023-03-14T00:34:53.987Z,40.08
2023-03-14T00:35:54.131Z,40.09
2023-03-14T00:36:53.152Z,40.10
2023-03-14T00:37:54.174Z,40.06
2023-03-14T00:38:54.244Z,40.06
2023-03-14T00:39:54.294Z,40.05
2023-03-14T00:40:54.335Z,40.02
2023-03-14T00:41:54.416Z,40.08
2023-03-14T00:42:54.447Z,40.04
2023-03-14T00:43:54.525Z,40.03
2023-03-14T00:44:54.568Z,40.04
2023-03-14T00:45:54.629Z,40.02
2023-03-14T00:46:53.723Z,40.04
2023-03-14T00:47:54.748Z,40.06
2023-03-14T00:48:54.805Z,40.01
2023-03-14T00:49:54.892Z,40.06
2023-03-14T00:50:53.916Z,40.04
2023-03-14T00:51:54.961Z,39.99
2023-03-14T00:52:54.014Z,40.01
2023-03-14T00:53:55.074Z,40.03
2023-03-14T00:54:55.146Z,40.01
2023-03-14T00:55:54.185Z,40.00
2023-03-14T00:56:55.256Z,40.03
2023-03-14T00:57:55.293Z,40.04
2023-03-14T00:58:55.339Z,40.02
2023-03-14T00:59:55.402Z,40.02
2023-03-14T01:00:55.485Z,40.01
2023-03-14T01:01:55.565Z,40.00
2023-03-14T01:02:54.671Z,39.99
2023-03-14T01:03:55.625Z,40.00
2023-03-14T01:04:54.698Z,40.00
2023-03-14T01:05:54.763Z,39.98
2023-03-14T01:06:55.795Z,39.99
2023-03-14T01:07:55.863Z,39.97
2023-03-14T01:08:55.912Z,39.98
2023-03-14T01:09:55.990Z,40.00
2023-03-14T01:10:56.016Z,39.99
2023-03-14T01:11:56.082Z,40.00
2023-03-14T01:12:56.135Z,40.02
2023-03-14T01:13:56.201Z,39.99
2023-03-14T01:14:56.259Z,40.00
2023-03-14T01:15:56.403Z,40.00
2023-03-14T01:16:56.378Z,39.97
2023-03-14T01:17:56.442Z,39.99
2023-03-14T01:18:56.510Z,40.02
2023-03-14T01:19:56.625Z,40.00
2023-03-14T01:20:56.649Z,39.96
2023-03-14T01:21:56.668Z,39.98
2023-03-14T01:22:56.730Z,39.98
2023-03-14T01:23:56.794Z,39.98
2023-03-14T01:24:55.861Z,39.98
2023-03-14T01:25:56.912Z,39.96
2023-03-14T01:26:56.980Z,39.95
2023-03-14T01:27:57.045Z,39.95
2023-03-14T01:28:56.134Z,39.95
2023-03-14T01:29:56.156Z,39.96
2023-03-14T01:30:57.269Z,39.94
2023-03-14T01:31:56.282Z,39.97
2023-03-14T01:32:57.372Z,39.96
2023-03-14T01:33:56.404Z,39.94
2023-03-14T01:34:57.472Z,39.96
2023-03-14T01:35:56.587Z,39.94
2023-03-14T01:36:57.633Z,39.94
2023-03-14T01:37:56.652Z,39.90
2023-03-14T01:38:57.732Z,39.95
2023-03-14T01:39:56.787Z,39.95
2023-03-14T01:40:57.854Z,39.94
2023-03-14T01:41:57.905Z,39.93
2023-03-14T01:42:56.978Z,39.93
2023-03-14T01:43:57.035Z,39.92
2023-03-14T01:44:57.102Z,39.94
2023-03-14T01:45:57.357Z,39.91
2023-03-14T01:46:58.231Z,39.91
2023-03-14T01:47:58.290Z,39.91
2023-03-14T01:48:58.347Z,39.94
2023-03-14T01:49:58.412Z,39.90
2023-03-14T01:50:58.463Z,39.91
2023-03-14T01:51:58.522Z,39.93
2023-03-14T01:52:58.625Z,39.91
2023-03-14T01:53:57.715Z,39.93
2023-03-14T01:54:58.705Z,39.95
2023-03-14T01:55:57.771Z,39.92
2023-03-14T01:56:58.828Z,39.97
2023-03-14T01:57:57.938Z,39.92
2023-03-14T01:58:57.981Z,39.92
2023-03-14T01:59:59.058Z,39.91
2023-03-14T02:00:59.127Z,39.90
2023-03-14T02:01:59.138Z,39.90
2023-03-14T02:02:59.189Z,39.89
2023-03-14T02:03:58.264Z,39.87
2023-03-14T02:04:59.314Z,39.92
2023-03-14T02:05:59.434Z,39.88
2023-03-14T02:06:59.436Z,39.89
2023-03-14T02:07:59.483Z,39.91
2023-03-14T02:08:59.567Z,39.90
2023-03-14T02:09:59.594Z,39.88
2023-03-14T02:10:59.661Z,39.88
2023-03-14T02:11:58.720Z,39.89
2023-03-14T02:12:59.760Z,39.86
2023-03-14T02:13:59.822Z,39.85
2023-03-14T02:14:58.855Z,39.83
2023-03-14T02:15:59.915Z,39.87
2023-03-14T02:16:58.980Z,39.90
2023-03-14T02:18:00.019Z,39.86
2023-03-14T02:19:00.085Z,39.87
2023-03-14T02:20:00.137Z,39.86
2023-03-14T02:20:59.189Z,39.87
2023-03-14T02:22:00.229Z,39.85
2023-03-14T02:23:00.296Z,39.86
2023-03-14T02:24:00.338Z,39.84
2023-03-14T02:25:00.425Z,39.84
2023-03-14T02:26:00.480Z,39.85
2023-03-14T02:27:00.507Z,39.85
2023-03-14T02:28:00.555Z,39.86
2023-03-14T02:29:00.605Z,39.87
2023-03-14T02:29:59.671Z,39.86
2023-03-14T02:31:00.727Z,39.88
2023-03-14T02:32:00.840Z,39.87
2023-03-14T02:33:00.889Z,39.88
2023-03-14T02:34:00.880Z,39.85
2023-03-14T02:35:00.931Z,39.88
2023-03-14T02:36:01.072Z,39.85
2023-03-14T02:37:01.041Z,39.84
2023-03-14T02:38:01.109Z,39.88
2023-03-14T02:39:01.170Z,39.84
2023-03-14T02:40:01.220Z,39.83
2023-03-14T02:41:01.317Z,39.82
2023-03-14T02:42:01.332Z,39.84
2023-03-14T02:43:01.390Z,39.84
2023-03-14T02:44:01.460Z,39.86
2023-03-14T02:45:01.489Z,39.85
2023-03-14T02:46:01.631Z,39.87
2023-03-14T02:47:01.605Z,39.86
2023-03-14T02:48:01.667Z,39.87
2023-03-14T02:49:01.737Z,39.86
2023-03-14T02:50:00.769Z,39.82
2023-03-14T02:51:01.850Z,39.88
2023-03-14T02:52:01.872Z,39.84
2023-03-14T02:53:00.924Z,39.84
2023-03-14T02:54:01.986Z,39.86
2023-03-14T02:55:01.038Z,39.83
2023-03-14T02:56:01.097Z,39.87
2023-03-14T02:57:02.203Z,39.84
2023-03-14T02:58:01.230Z,39.85
2023-03-14T02:59:02.280Z,39.82
2023-03-14T03:00:02.336Z,39.85
2023-03-14T03:01:02.465Z,39.82
2023-03-14T03:02:01.863Z,39.84
2023-03-14T03:03:02.548Z,39.77
2023-03-14T03:04:01.599Z,39.81
2023-03-14T03:05:01.664Z,39.78
2023-03-14T03:06:02.714Z,39.73
2023-03-14T03:07:02.787Z,39.70
2023-03-14T03:08:01.903Z,39.67
2023-03-14T03:09:02.909Z,39.68
2023-03-14T03:10:01.976Z,39.65
2023-03-14T03:11:03.027Z,39.67
2023-03-14T03:12:02.098Z,39.63
2023-03-14T03:13:03.166Z,39.64
2023-03-14T03:14:02.198Z,39.61
2023-03-14T03:15:02.233Z,39.60
2023-03-14T03:16:03.289Z,39.59
2023-03-14T03:17:03.393Z,39.56
2023-03-14T03:18:03.389Z,39.53
2023-03-14T03:19:03.468Z,39.51
2023-03-14T03:20:03.528Z,39.51
2023-03-14T03:21:03.579Z,39.51
2023-03-14T03:22:03.638Z,39.48
2023-03-14T03:23:03.698Z,39.46
2023-03-14T03:24:03.750Z,39.47
2023-03-14T03:25:03.815Z,39.45
2023-03-14T03:26:03.856Z,39.44
2023-03-14T03:27:03.930Z,39.42
2023-03-14T03:28:03.980Z,39.41
2023-03-14T03:29:04.062Z,39.40
2023-03-14T03:30:03.110Z,39.36
2023-03-14T03:31:03.262Z,39.36
2023-03-14T03:32:04.235Z,39.38
2023-03-14T03:33:04.262Z,39.34
2023-03-14T03:34:04.323Z,39.32
2023-03-14T03:35:04.378Z,39.34
2023-03-14T03:36:03.419Z,39.32
2023-03-14T03:37:04.473Z,39.29
2023-03-14T03:38:04.501Z,39.29
2023-03-14T03:39:04.553Z,39.28
2023-03-14T03:40:04.603Z,39.29
2023-03-14T03:41:04.655Z,39.24
2023-03-14T03:42:03.669Z,39.25
2023-03-14T03:43:04.704Z,39.23
2023-03-14T03:44:04.743Z,39.20
2023-03-14T03:45:04.809Z,39.21
2023-03-14T03:46:05.193Z,39.21
2023-03-14T03:47:04.856Z,39.17
2023-03-14T03:48:04.907Z,39.17
2023-03-14T03:49:04.945Z,39.17
2023-03-14T03:50:04.994Z,39.16
2023-03-14T03:51:05.017Z,39.15
2023-03-14T03:52:05.040Z,39.15
2023-03-14T03:53:05.078Z,39.13
2023-03-14T03:54:05.110Z,39.12
2023-03-14T03:55:05.163Z,39.13
2023-03-14T03:56:05.168Z,39.12
2023-03-14T03:57:04.207Z,39.10
2023-03-14T03:58:05.232Z,39.12
2023-03-14T03:59:05.259Z,39.10
2023-03-14T04:00:05.284Z,39.08
2023-03-14T04:01:05.480Z,39.08
2023-03-14T04:02:05.394Z,39.04
2023-03-14T04:03:05.365Z,39.07
2023-03-14T04:04:05.461Z,39.06
2023-03-14T04:05:05.413Z,39.05
2023-03-14T04:06:05.568Z,39.04
2023-03-14T04:07:04.484Z,39.06
2023-03-14T04:08:05.511Z,39.02
2023-03-14T04:09:04.538Z,39.03
2023-03-14T04:10:05.561Z,39.02
2023-03-14T04:11:05.580Z,39.01
2023-03-14T04:12:05.619Z,39.02
2023-03-14T04:13:05.642Z,39.00
2023-03-14T04:14:04.665Z,39.00
2023-03-14T04:15:05.700Z,39.00
2023-03-14T04:16:05.864Z,39.01
2023-03-14T04:17:05.773Z,39.00
2023-03-14T04:18:05.770Z,39.01
2023-03-14T04:19:05.824Z,38.97
2023-03-14T04:20:05.819Z,38.96
2023-03-14T04:21:04.844Z,38.98
2023-03-14T04:22:05.913Z,38.99
2023-03-14T04:23:05.908Z,39.00
2023-03-14T04:24:05.936Z,38.99
2023-03-14T04:25:06.941Z,38.97
2023-03-14T04:26:06.000Z,38.99
2023-03-14T04:27:06.011Z,39.01
2023-03-14T04:28:06.052Z,38.98
2023-03-14T04:29:05.063Z,38.98
2023-03-14T04:30:06.073Z,38.97
2023-03-14T04:31:06.146Z,38.97
2023-03-14T04:32:06.125Z,38.97
2023-03-14T04:33:05.160Z,38.98
2023-03-14T04:34:06.174Z,38.98
2023-03-14T04:35:06.181Z,38.98
2023-03-14T04:36:05.232Z,38.98
2023-03-14T04:37:05.236Z,38.96
2023-03-14T04:38:06.274Z,38.99
2023-03-14T04:39:05.260Z,38.97
2023-03-14T04:40:06.285Z,38.95
2023-03-14T04:41:05.307Z,38.91
2023-03-14T04:42:05.323Z,38.94
2023-03-14T04:43:06.367Z,38.94
2023-03-14T04:44:06.401Z,38.96
2023-03-14T04:45:05.426Z,38.93
2023-03-14T04:46:06.444Z,38.94
2023-03-14T04:47:05.466Z,38.94
2023-03-14T04:48:05.509Z,38.92
2023-03-14T04:49:06.577Z,38.94
2023-03-14T04:50:06.632Z,38.96
2023-03-14T04:51:06.592Z,38.91
2023-03-14T04:52:05.626Z,38.90
2023-03-14T04:53:06.681Z,38.95
2023-03-14T04:54:05.671Z,38.92
2023-03-14T04:55:05.705Z,38.90
2023-03-14T04:56:06.744Z,38.91
2023-03-14T04:57:06.779Z,38.90
2023-03-14T04:58:06.817Z,38.91
2023-03-14T04:59:06.812Z,38.90
2023-03-14T05:00:06.854Z,38.90
2023-03-14T05:01:06.879Z,38.89
2023-03-14T05:02:06.958Z,38.95
2023-03-14T05:03:05.974Z,38.90
2023-03-14T05:04:06.954Z,38.90
2023-03-14T05:05:07.005Z,38.90
2023-03-14T05:06:06.024Z,38.91
2023-03-14T05:07:07.054Z,38.92
2023-03-14T05:08:07.160Z,38.92
2023-03-14T05:09:06.142Z,38.92
2023-03-14T05:10:07.180Z,38.96
2023-03-14T05:11:07.179Z,38.91
2023-03-14T05:12:06.179Z,38.93
2023-03-14T05:13:07.244Z,38.93
2023-03-14T05:14:07.251Z,38.92
2023-03-14T05:15:07.306Z,38.95
2023-03-14T05:16:07.331Z,38.96
2023-03-14T05:17:07.320Z,38.95
2023-03-14T05:18:07.409Z,38.96
2023-03-14T05:19:07.381Z,38.95
2023-03-14T05:20:07.387Z,38.96
2023-03-14T05:21:07.445Z,38.97
2023-03-14T05:22:07.457Z,38.96
2023-03-14T05:23:07.464Z,38.96
2023-03-14T05:24:07.472Z,38.98
2023-03-14T05:25:06.502Z,38.96
2023-03-14T05:26:06.513Z,38.97
2023-03-14T05:27:07.534Z,38.94
2023-03-14T05:28:06.562Z,38.97
2023-03-14T05:29:07.576Z,38.96
2023-03-14T05:30:07.608Z,38.97
2023-03-14T05:31:06.645Z,38.94
2023-03-14T05:32:07.640Z,38.96
2023-03-14T05:33:07.752Z,38.97
2023-03-14T05:34:06.686Z,38.95
2023-03-14T05:35:07.706Z,38.93
2023-03-14T05:36:06.760Z,38.95
2023-03-14T05:37:07.889Z,38.95
2023-03-14T05:38:06.759Z,38.94
2023-03-14T05:39:07.814Z,38.95
2023-03-14T05:40:07.811Z,38.96
2023-03-14T05:41:07.846Z,38.96
2023-03-14T05:42:07.873Z,38.97
2023-03-14T05:43:07.908Z,38.95
2023-03-14T05:44:07.945Z,38.96
2023-03-14T05:45:06.940Z,38.94
2023-03-14T05:46:07.081Z,38.96
2023-03-14T05:47:07.997Z,38.98
2023-03-14T05:48:08.023Z,38.96
2023-03-14T05:49:08.060Z,38.95
2023-03-14T05:50:08.063Z,38.96
2023-03-14T05:51:08.350Z,38.96
2023-03-14T05:52:08.097Z,38.92
2023-03-14T05:53:08.245Z,38.93
2023-03-14T05:54:08.178Z,38.92
2023-03-14T05:55:08.156Z,38.94
2023-03-14T05:56:08.189Z,38.92
2023-03-14T05:57:08.198Z,38.90
2023-03-14T05:58:08.235Z,38.89
2023-03-14T05:59:08.265Z,38.91
2023-03-14T06:00:08.273Z,38.90
2023-03-14T06:01:08.314Z,38.89
2023-03-14T06:02:08.366Z,38.86
2023-03-14T06:03:08.411Z,38.90
2023-03-14T06:04:08.414Z,38.90
2023-03-14T06:05:08.389Z,38.91
2023-03-14T06:06:08.455Z,38.85
2023-03-14T06:07:08.429Z,38.90
2023-03-14T06:08:07.454Z,38.88
2023-03-14T06:09:07.561Z,38.90
2023-03-14T06:10:08.491Z,38.90
2023-03-14T06:11:08.514Z,38.87
2023-03-14T06:12:07.539Z,38.86
2023-03-14T06:13:08.575Z,38.89
2023-03-14T06:14:08.577Z,38.88
2023-03-14T06:15:08.597Z,38.90
2023-03-14T06:16:08.678Z,38.87
2023-03-14T06:17:08.651Z,38.87
2023-03-14T06:18:08.683Z,38.87
2023-03-14T06:19:07.716Z,38.88
2023-03-14T06:20:08.716Z,38.87
2023-03-14T06:21:08.729Z,38.88
2023-03-14T06:22:08.747Z,38.86
2023-03-14T06:23:08.779Z,38.87
2023-03-14T06:24:08.791Z,38.86
2023-03-14T06:25:08.837Z,38.86
2023-03-14T06:26:08.849Z,38.83
2023-03-14T06:27:08.838Z,38.79
2023-03-14T06:28:07.863Z,38.77
2023-03-14T06:29:07.878Z,38.76
2023-03-14T06:30:08.911Z,38.77
2023-03-14T06:31:08.017Z,38.75
2023-03-14T06:32:08.941Z,38.71
2023-03-14T06:33:08.952Z,38.71
2023-03-14T06:34:08.961Z,38.74
2023-03-14T06:35:08.978Z,38.73
2023-03-14T06:36:09.028Z,38.72
2023-03-14T06:37:08.013Z,38.75
2023-03-14T06:38:09.073Z,38.76
2023-03-14T06:39:08.035Z,38.89
2023-03-14T06:40:09.060Z,38.87
2023-03-14T06:41:09.268Z,38.84
2023-03-14T06:42:09.078Z,38.93
2023-03-14T06:43:08.105Z,38.97
2023-03-14T06:44:09.147Z,38.97
2023-03-14T06:45:09.125Z,38.98
2023-03-14T06:46:09.226Z,39.01
2023-03-14T06:47:09.145Z,39.07
2023-03-14T06:48:09.137Z,39.07
2023-03-14T06:49:08.142Z,39.08
2023-03-14T06:50:09.156Z,39.18
2023-03-14T06:51:08.551Z,39.24
2023-03-14T06:52:09.148Z,39.81
2023-03-14T06:53:09.198Z,39.43
2023-03-14T06:54:09.209Z,39.43
2023-03-14T06:55:09.159Z,39.41
2023-03-14T06:56:09.165Z,39.50
2023-03-14T06:57:09.241Z,39.62
2023-03-14T06:58:09.305Z,40.71
2023-03-14T06:59:09.489Z,41.51
2023-03-14T07:00:09.719Z,43.53
2023-03-14T07:01:08.521Z,42.87
2023-03-14T07:02:09.619Z,41.93
2023-03-14T07:03:08.571Z,42.33
2023-03-14T07:04:09.690Z,42.24
2023-03-14T07:05:09.675Z,41.71
2023-03-14T07:06:09.686Z,41.85
2023-03-14T07:07:09.705Z,41.85
2023-03-14T07:08:09.701Z,41.88
2023-03-14T07:09:09.784Z,42.36
2023-03-14T07:10:09.964Z,42.09
2023-03-14T07:11:09.737Z,41.99
2023-03-14T07:12:09.740Z,42.14
2023-03-14T07:13:09.862Z,42.43
2023-03-14T07:14:09.804Z,42.21
2023-03-14T07:15:18.252Z,43.80
2023-03-14T07:16:10.092Z,44.00
2023-03-14T07:17:09.738Z,43.51
2023-03-14T07:18:09.722Z,44.09
2023-03-14T07:19:09.752Z,43.47
2023-03-14T07:20:08.742Z,43.44
2023-03-14T07:21:09.721Z,43.30
2023-03-14T07:22:08.728Z,43.15
2023-03-14T07:23:09.724Z,44.05
2023-03-14T07:24:09.722Z,44.70
2023-03-14T07:25:09.709Z,44.54
2023-03-14T07:26:08.853Z,43.90
2023-03-14T07:27:11.401Z,43.97
2023-03-14T07:28:09.702Z,44.28
2023-03-14T07:29:10.124Z,43.90
2023-03-14T07:30:08.676Z,44.04
2023-03-14T07:31:09.886Z,43.91
2023-03-14T07:32:09.647Z,43.82
2023-03-14T07:33:11.427Z,43.76
2023-03-14T07:34:09.650Z,44.65
2023-03-14T07:35:09.928Z,44.28
2023-03-14T07:36:10.136Z,44.07
2023-03-14T07:37:10.130Z,44.30
2023-03-14T07:38:08.617Z,44.07
2023-03-14T07:39:08.762Z,44.49
2023-03-14T07:40:09.656Z,44.59
2023-03-14T07:41:09.578Z,44.34
2023-03-14T07:42:09.616Z,44.46
2023-03-14T07:43:09.597Z,44.49
2023-03-14T07:44:08.578Z,44.79
2023-03-14T07:45:09.611Z,45.07
2023-03-14T07:46:09.617Z,45.14
2023-03-14T07:47:09.626Z,44.88
2023-03-14T07:48:09.585Z,44.72
2023-03-14T07:49:09.648Z,45.02
2023-03-14T07:50:09.867Z,45.30
2023-03-14T07:51:08.742Z,45.17
2023-03-14T07:52:09.550Z,45.43
2023-03-14T07:53:09.537Z,45.15
2023-03-14T07:54:09.495Z,45.27
2023-03-14T07:55:09.589Z,45.86
2023-03-14T07:56:09.573Z,45.81
2023-03-14T07:57:09.609Z,45.75
2023-03-14T07:58:09.665Z,45.28
2023-03-14T07:59:09.777Z,45.10
2023-03-14T08:00:09.755Z,45.24
2023-03-14T08:01:10.005Z,45.35
2023-03-14T08:02:09.875Z,45.61
2023-03-14T08:03:09.938Z,45.78
2023-03-14T08:04:10.094Z,45.79
2023-03-14T08:05:10.062Z,45.75
2023-03-14T08:06:10.099Z,45.82
2023-03-14T08:07:10.205Z,45.86
2023-03-14T08:08:10.257Z,46.03
2023-03-14T08:09:10.284Z,46.01
2023-03-14T08:10:10.338Z,45.86
2023-03-14T08:11:10.404Z,45.95
2023-03-14T08:12:10.434Z,45.95
2023-03-14T08:13:10.455Z,45.74
2023-03-14T08:14:10.473Z,45.73
2023-03-14T08:15:10.511Z,45.79
2023-03-14T08:16:10.528Z,45.91
2023-03-14T08:17:10.590Z,45.88
2023-03-14T08:18:09.548Z,45.91
2023-03-14T08:19:10.498Z,45.86
2023-03-14T08:20:09.542Z,45.71
2023-03-14T08:21:10.482Z,45.69
2023-03-14T08:22:10.482Z,45.72
2023-03-14T08:23:10.525Z,45.60
2023-03-14T08:24:10.484Z,45.62
2023-03-14T08:25:10.521Z,45.45
2023-03-14T08:26:10.467Z,45.53
2023-03-14T08:27:11.217Z,45.59
2023-03-14T08:28:09.490Z,45.58
2023-03-14T08:29:10.505Z,45.44
2023-03-14T08:30:10.510Z,45.49
2023-03-14T08:31:09.659Z,45.52
2023-03-14T08:32:10.726Z,45.50
2023-03-14T08:33:10.498Z,45.38
2023-03-14T08:34:10.476Z,45.35
2023-03-14T08:35:10.505Z,45.27
2023-03-14T08:36:10.684Z,45.23
2023-03-14T08:37:19.986Z,45.18
2023-03-14T08:38:10.510Z,45.05
2023-03-14T08:39:10.498Z,45.06
2023-03-14T08:40:09.506Z,44.98
2023-03-14T08:41:10.485Z,44.98
2023-03-14T08:42:10.468Z,44.87
2023-03-14T08:43:10.456Z,44.81
2023-03-14T08:44:10.533Z,44.75
2023-03-14T08:45:09.492Z,44.76
2023-03-14T08:46:10.446Z,44.67
2023-03-14T08:47:10.560Z,44.70
2023-03-14T08:48:10.441Z,45.11
2023-03-14T08:49:10.456Z,45.03
2023-03-14T08:50:11.792Z,45.28
2023-03-14T08:51:09.422Z,44.96
2023-03-14T08:52:10.415Z,44.72
2023-03-14T08:53:10.440Z,44.58
2023-03-14T08:54:09.389Z,44.43
2023-03-14T08:55:10.394Z,44.28
2023-03-14T08:56:09.386Z,44.28
2023-03-14T08:57:10.377Z,44.20
2023-03-14T08:58:10.364Z,44.14
2023-03-14T08:59:10.364Z,44.10
2023-03-14T09:00:09.388Z,44.10
2023-03-14T09:01:10.382Z,44.10
2023-03-14T09:02:12.330Z,44.11
2023-03-14T09:03:09.359Z,44.08
2023-03-14T09:04:10.420Z,44.11
2023-03-14T09:05:10.389Z,44.10
2023-03-14T09:06:10.321Z,44.08
2023-03-14T09:07:10.308Z,44.00
2023-03-14T09:08:10.309Z,43.92
2023-03-14T09:09:10.330Z,43.86
2023-03-14T09:10:10.288Z,43.82
2023-03-14T09:11:10.328Z,43.75
2023-03-14T09:12:10.309Z,43.76
2023-03-14T09:13:10.282Z,43.66
2023-03-14T09:14:09.259Z,43.69
2023-03-14T09:15:10.278Z,43.67
2023-03-14T09:16:09.288Z,43.66
2023-03-14T09:17:10.231Z,43.66
2023-03-14T09:18:10.251Z,43.69
2023-03-14T09:19:10.247Z,43.68
2023-03-14T09:20:10.254Z,43.63
2023-03-14T09:21:10.247Z,43.64
2023-03-14T09:22:10.206Z,43.66
2023-03-14T09:23:10.211Z,43.62
2023-03-14T09:24:10.248Z,43.59
2023-03-14T09:25:10.208Z,43.61
2023-03-14T09:26:09.196Z,43.60
2023-03-14T09:27:10.218Z,43.55
2023-03-14T09:28:10.199Z,43.55
2023-03-14T09:29:10.237Z,43.53
2023-03-14T09:30:10.171Z,43.49
2023-03-14T09:31:10.226Z,43.46
2023-03-14T09:32:10.160Z,43.43
2023-03-14T09:33:10.163Z,43.41
2023-03-14T09:34:10.164Z,43.42
2023-03-14T09:35:09.141Z,43.38
2023-03-14T09:36:10.137Z,43.36
2023-03-14T09:37:10.149Z,43.32
2023-03-14T09:38:09.122Z,43.25
2023-03-14T09:39:09.106Z,43.25
2023-03-14T09:40:11.395Z,43.26
2023-03-14T09:41:10.750Z,43.22
2023-03-14T09:42:10.614Z,43.84
2023-03-14T09:43:09.236Z,43.95
2023-03-14T09:44:10.246Z,43.71
2023-03-14T09:45:10.304Z,42.93
2023-03-14T09:46:11.810Z,43.44
2023-03-14T09:47:10.344Z,43.38
2023-03-14T09:48:10.362Z,43.43
2023-03-14T09:49:10.339Z,43.66
2023-03-14T09:50:10.362Z,43.91
2023-03-14T09:51:10.334Z,44.18
2023-03-14T09:52:10.323Z,43.82
2023-03-14T09:53:10.328Z,43.75
2023-03-14T09:54:10.336Z,43.69
2023-03-14T09:55:10.309Z,43.76
2023-03-14T09:56:10.485Z,44.43
2023-03-14T09:57:09.298Z,45.07
2023-03-14T09:58:10.261Z,45.09
2023-03-14T09:59:09.285Z,44.86
2023-03-14T10:00:09.251Z,45.34
2023-03-14T10:01:09.305Z,44.59
2023-03-14T10:02:10.237Z,44.77
2023-03-14T10:03:10.225Z,44.38
2023-03-14T10:04:09.291Z,44.28
2023-03-14T10:05:10.287Z,44.22
2023-03-14T10:06:10.226Z,44.37
2023-03-14T10:07:10.240Z,44.42
2023-03-14T10:08:10.253Z,44.39
2023-03-14T10:09:10.310Z,44.53
2023-03-14T10:10:09.253Z,44.50
2023-03-14T10:11:10.221Z,45.60
2023-03-14T10:12:11.296Z,45.36
2023-03-14T10:13:10.175Z,45.64
2023-03-14T10:14:10.197Z,44.99
2023-03-14T10:15:10.183Z,45.46
2023-03-14T10:16:09.290Z,45.08
2023-03-14T10:17:10.397Z,45.25
2023-03-14T10:18:10.321Z,46.11
2023-03-14T10:19:10.442Z,45.31
2023-03-14T10:20:10.409Z,45.27
2023-03-14T10:21:10.454Z,45.58
2023-03-14T10:22:09.471Z,45.31
2023-03-14T10:23:10.639Z,45.76
2023-03-14T10:24:10.573Z,45.40
2023-03-14T10:25:09.645Z,45.44
2023-03-14T10:26:09.698Z,45.31
2023-03-14T10:27:10.690Z,45.50
2023-03-14T10:28:10.766Z,45.54
2023-03-14T10:29:10.811Z,46.05
2023-03-14T10:30:09.827Z,45.44
2023-03-14T10:31:10.970Z,45.30
2023-03-14T10:32:10.887Z,45.42
2023-03-14T10:33:09.889Z,45.38
2023-03-14T10:34:10.914Z,45.66
2023-03-14T10:35:10.982Z,45.77
2023-03-14T10:36:13.956Z,45.99
2023-03-14T10:37:10.965Z,45.70
2023-03-14T10:38:10.950Z,45.64
2023-03-14T10:39:10.948Z,46.05
2023-03-14T10:40:11.079Z,45.89
2023-03-14T10:41:11.092Z,45.83
2023-03-14T10:42:10.928Z,46.34
2023-03-14T10:43:10.942Z,46.16
2023-03-14T10:44:10.912Z,46.31
2023-03-14T10:45:10.918Z,46.55
2023-03-14T10:46:11.050Z,46.71
2023-03-14T10:47:10.008Z,46.31
2023-03-14T10:48:10.900Z,46.37
2023-03-14T10:49:10.887Z,46.54
2023-03-14T10:50:10.916Z,46.42
2023-03-14T10:51:10.901Z,46.22
2023-03-14T10:52:10.997Z,46.17
2023-03-14T10:53:10.954Z,46.27
2023-03-14T10:54:10.985Z,46.35
2023-03-14T10:55:11.026Z,46.21
2023-03-14T10:56:11.105Z,46.10
2023-03-14T10:57:11.254Z,46.02
2023-03-14T10:58:11.176Z,46.04
2023-03-14T10:59:11.226Z,46.03
2023-03-14T11:00:11.248Z,46.06
2023-03-14T11:01:11.464Z,46.07
2023-03-14T11:02:13.476Z,45.99
2023-03-14T11:03:11.359Z,46.05
2023-03-14T11:04:10.330Z,46.05
2023-03-14T11:05:11.377Z,46.15
2023-03-14T11:06:11.337Z,46.13
2023-03-14T11:07:10.396Z,46.17
2023-03-14T11:08:11.355Z,46.20
2023-03-14T11:09:11.321Z,46.20
2023-03-14T11:10:10.312Z,46.19
2023-03-14T11:11:11.405Z,46.15
2023-03-14T11:12:11.286Z,46.17
2023-03-14T11:13:11.350Z,46.14
2023-03-14T11:14:11.373Z,46.15
2023-03-14T11:15:11.299Z,46.16
2023-03-14T11:16:11.339Z,46.12
2023-03-14T11:17:11.319Z,46.11
2023-03-14T11:18:10.253Z,46.09
2023-03-14T11:19:10.280Z,46.07
2023-03-14T11:20:11.239Z,46.04
2023-03-14T11:21:11.248Z,46.03
2023-03-14T11:22:11.243Z,46.04
2023-03-14T11:23:11.213Z,46.00
2023-03-14T11:24:11.215Z,45.97
2023-03-14T11:25:11.202Z,45.98
2023-03-14T11:26:10.205Z,45.97
2023-03-14T11:27:11.210Z,45.93
2023-03-14T11:28:11.187Z,45.92
2023-03-14T11:29:10.236Z,45.93
2023-03-14T11:30:11.272Z,45.92
2023-03-14T11:31:11.373Z,45.90
2023-03-14T11:32:10.376Z,45.81
2023-03-14T11:33:11.459Z,45.82
2023-03-14T11:34:11.501Z,45.71
2023-03-14T11:35:10.575Z,45.60
2023-03-14T11:36:10.652Z,45.59
2023-03-14T11:37:11.691Z,45.51
2023-03-14T11:38:11.759Z,45.44
2023-03-14T11:39:11.801Z,45.38
2023-03-14T11:40:11.911Z,45.33
2023-03-14T11:41:11.941Z,45.33
2023-03-14T11:42:11.993Z,45.21
2023-03-14T11:43:12.066Z,45.24
2023-03-14T11:44:12.105Z,45.27
2023-03-14T11:45:11.175Z,45.42
2023-03-14T11:46:12.259Z,45.35
2023-03-14T11:47:11.548Z,45.36
2023-03-14T11:48:11.341Z,45.40
2023-03-14T11:49:12.365Z,45.30
2023-03-14T11:50:11.462Z,45.25
2023-03-14T11:51:12.503Z,45.23
2023-03-14T11:52:11.540Z,45.17
2023-03-14T11:53:12.597Z,45.12
2023-03-14T11:54:12.637Z,45.08
2023-03-14T11:55:11.656Z,45.05
2023-03-14T11:56:12.742Z,45.08
2023-03-14T11:57:11.767Z,44.99
2023-03-14T11:58:12.793Z,44.94
2023-03-14T11:59:12.859Z,44.91
2023-03-14T12:00:11.887Z,44.90
2023-03-14T12:01:12.955Z,44.87
2023-03-14T12:02:12.049Z,44.82
2023-03-14T12:03:13.024Z,44.91
2023-03-14T12:04:13.285Z,44.92
2023-03-14T12:05:12.138Z,44.84
2023-03-14T12:06:13.153Z,44.81
2023-03-14T12:07:13.174Z,44.84
2023-03-14T12:08:13.268Z,44.75
2023-03-14T12:09:12.280Z,44.67
2023-03-14T12:10:13.403Z,44.72
2023-03-14T12:11:13.390Z,44.68
2023-03-14T12:12:13.490Z,44.72
2023-03-14T12:13:12.470Z,44.61
2023-03-14T12:14:13.493Z,44.62
2023-03-14T12:15:13.835Z,44.53
2023-03-14T12:16:13.688Z,44.58
2023-03-14T12:17:13.694Z,44.48
2023-03-14T12:18:13.713Z,44.46
2023-03-14T12:19:12.783Z,44.38
2023-03-14T12:20:12.821Z,44.35
2023-03-14T12:21:12.909Z,44.38
2023-03-14T12:22:13.970Z,44.34
2023-03-14T12:23:13.948Z,44.30
2023-03-14T12:24:14.007Z,44.30
2023-03-14T12:25:14.031Z,44.28
2023-03-14T12:26:14.083Z,44.19
2023-03-14T12:27:14.249Z,44.15
2023-03-14T12:28:14.133Z,44.17
2023-03-14T12:29:13.180Z,44.16
2023-03-14T12:30:13.248Z,44.13
2023-03-14T12:31:14.637Z,44.22
2023-03-14T12:32:14.346Z,44.23
2023-03-14T12:33:14.411Z,44.17
2023-03-14T12:34:14.428Z,44.15
2023-03-14T12:35:14.485Z,44.18
2023-03-14T12:36:14.502Z,44.20
2023-03-14T12:37:14.042Z,44.16
2023-03-14T12:38:14.605Z,44.16
2023-03-14T12:39:13.670Z,44.09
2023-03-14T12:40:14.702Z,44.09
2023-03-14T12:41:14.750Z,44.08
2023-03-14T12:42:14.834Z,44.11
2023-03-14T12:43:14.824Z,44.18
2023-03-14T12:44:13.860Z,44.07
2023-03-14T12:45:14.919Z,44.04
2023-03-14T12:46:15.130Z,44.06
2023-03-14T12:47:15.057Z,44.10
2023-03-14T12:48:14.044Z,44.10
2023-03-14T12:49:15.317Z,44.04
2023-03-14T12:50:15.169Z,44.04
2023-03-14T12:51:15.359Z,44.03
2023-03-14T12:52:15.215Z,44.02
2023-03-14T12:53:15.278Z,44.03